Federal Rideau — VRWG7 — position and weather

sailwx.info

Track history (hours):
 
Tides and Currents Weather Stations Pressure Air Temp Water Temp Dewpoint Dewpoint Depression Visibility Wind Speed Wind Dir Waves Ship Positions

Federal Rideau

Last reported at 2014-Nov-22 08:11 UTC. Time now 2014-Nov-23 09:54 UTC.
Position N 44°07' W 076°23'.

Length 200 m; draft 6.5 m.

Type: Cargo ship. MMSI: 477734000.

Date/timePositionNaut miles runAvg speedWind from/ knotsBaromVisibWave heightAir tempDewpointWater temp
2014-Nov-22 08:11N 44°07' W 076°23'0 0.2
2014-Nov-22 07:34N 44°07' W 076°22'1 1.0
2014-Nov-22 06:34N 44°06' W 076°23'3 2.6
2014-Nov-22 05:34N 44°08' W 076°21'2 1.5
2014-Nov-22 04:34N 44°07' W 076°22'0 0.2
2014-Nov-22 03:34N 44°07' W 076°23'2 2.0
2014-Nov-22 02:34N 44°08' W 076°20'2 2.4
2014-Nov-22 01:33N 44°10' W 076°19'7 6.7
2014-Nov-22 00:31N 44°13' W 076°11'0 0.0
2014-Nov-21 21:13N 44°13' W 076°10'0 0.0
2014-Nov-21 20:19N 44°13' W 076°10'0 0.0
2014-Nov-21 19:31N 44°13' W 076°10'0 0.0
2014-Nov-21 18:34N 44°13' W 076°10'0 0.0
2014-Nov-21 17:31N 44°13' W 076°10'0 0.0
2014-Nov-21 16:31N 44°13' W 076°10'0 0.1
2014-Nov-21 15:34N 44°13' W 076°11'1 0.6
2014-Nov-21 14:34N 44°14' W 076°10'0 0.0
2014-Nov-21 13:34N 44°14' W 076°10'0 0.0
2014-Nov-21 12:34N 44°14' W 076°10'0 0.1
2014-Nov-21 11:18N 44°14' W 076°09'0 0.0
2014-Nov-21 10:30N 44°14' W 076°09'0 0.1
2014-Nov-21 09:31N 44°14' W 076°09'0 0.0
2014-Nov-21 08:34N 44°14' W 076°09'0 0.0
2014-Nov-21 07:34N 44°14' W 076°09'0 0.0
2014-Nov-21 06:30N 44°14' W 076°09'0 0.0
2014-Nov-21 05:34N 44°14' W 076°09'0 0.0
2014-Nov-21 04:30N 44°14' W 076°09'0 0.0
2014-Nov-21 03:33N 44°14' W 076°09'0 0.0
2014-Nov-21 02:34N 44°14' W 076°09'0 0.0
2014-Nov-21 01:34N 44°14' W 076°09'0 0.0
2014-Nov-21 00:30N 44°14' W 076°09'0 0.0
2014-Nov-20 23:30N 44°14' W 076°09'0 0.0
2014-Nov-20 22:30N 44°14' W 076°09'0 0.0
2014-Nov-20 21:24N 44°14' W 076°09'0 0.0
2014-Nov-20 20:30N 44°14' W 076°09'0 0.0
2014-Nov-20 19:30N 44°14' W 076°09'1 0.7
2014-Nov-20 18:34N 44°14' W 076°09'5 4.7
2014-Nov-20 17:31N 44°16' W 076°03'9 8.6
2014-Nov-20 16:30N 44°22' W 075°54'1010.9
2014-Nov-20 15:33N 44°31' W 075°46'88 6.3
2014-Nov-20 01:32N 45°15' W 073°59'5 4.6
2014-Nov-20 00:33N 45°19' W 073°55'1 0.9
2014-Nov-19 23:33N 45°19' W 073°55'1 1.1
2014-Nov-19 22:33N 45°20' W 073°54'4 3.6
2014-Nov-19 21:33N 45°22' W 073°50'6 6.1
2014-Nov-19 20:33N 45°25' W 073°42'5 4.6
2014-Nov-19 19:33N 45°24' W 073°35'1 1.3
2014-Nov-19 18:30N 45°24' W 073°33'6 2.8
2014-Nov-19 16:25N 45°30' W 073°31'22 1.3
2014-Nov-18 23:25N 45°50' W 073°17'0 0.0
2014-Nov-18 22:31N 45°50' W 073°17'0 0.0
2014-Nov-18 21:31N 45°50' W 073°17'0 0.0
2014-Nov-18 20:31N 45°50' W 073°17'0 0.0
2014-Nov-18 19:31N 45°50' W 073°17'0 0.0
2014-Nov-18 18:31N 45°50' W 073°17'0 0.0
2014-Nov-18 17:31N 45°50' W 073°17'0 0.0
2014-Nov-18 16:31N 45°50' W 073°17'0 0.0
2014-Nov-18 15:13N 45°50' W 073°17'0 0.0
2014-Nov-18 14:31N 45°50' W 073°17'0 0.0
2014-Nov-18 13:31N 45°50' W 073°17'0 0.0
2014-Nov-18 12:31N 45°50' W 073°17'0 0.0
2014-Nov-18 11:31N 45°50' W 073°17'0 0.0
2014-Nov-18 10:31N 45°50' W 073°17'0 0.0
2014-Nov-18 09:31N 45°50' W 073°17'0 0.0
2014-Nov-18 08:31N 45°50' W 073°17'0 0.0
2014-Nov-18 07:31N 45°50' W 073°17'0 0.0
2014-Nov-18 06:31N 45°50' W 073°17'0 0.0
2014-Nov-18 05:31N 45°50' W 073°17'0 0.0
2014-Nov-18 04:31N 45°50' W 073°17'0 0.0
2014-Nov-18 03:31N 45°50' W 073°17'0 0.0
2014-Nov-18 02:31N 45°50' W 073°17'0 0.0
2014-Nov-18 01:31N 45°50' W 073°17'0 0.0
2014-Nov-18 00:22N 45°50' W 073°17'0 0.0
2014-Nov-17 23:31N 45°50' W 073°17'0 0.0
2014-Nov-17 22:28N 45°50' W 073°17'0 0.0
2014-Nov-17 21:31N 45°50' W 073°17'0 0.0
2014-Nov-17 20:31N 45°50' W 073°17'0 0.0
2014-Nov-17 19:31N 45°50' W 073°17'0 0.0
2014-Nov-17 18:31N 45°50' W 073°17'0 0.0
2014-Nov-17 17:31N 45°50' W 073°17'0 0.0
2014-Nov-17 16:31N 45°50' W 073°17'0 0.0
2014-Nov-17 15:31N 45°50' W 073°17'0 0.0
2014-Nov-17 14:31N 45°50' W 073°17'0 0.0
2014-Nov-17 13:31N 45°50' W 073°17'0 0.0
2014-Nov-17 12:31N 45°50' W 073°17'0 0.0
2014-Nov-17 11:31N 45°50' W 073°17'0 0.0
2014-Nov-17 10:31N 45°50' W 073°17'0 0.0
2014-Nov-17 09:31N 45°50' W 073°17'0 0.0
2014-Nov-17 08:31N 45°50' W 073°17'0 0.0
2014-Nov-17 07:31N 45°50' W 073°17'0 0.0
2014-Nov-17 06:31N 45°50' W 073°17'0 0.0
2014-Nov-17 05:31N 45°50' W 073°17'0 0.0
2014-Nov-17 04:31N 45°50' W 073°17'0 0.0
2014-Nov-17 03:31N 45°50' W 073°17'0 0.0
2014-Nov-17 02:31N 45°50' W 073°17'0 0.0
2014-Nov-17 01:31N 45°50' W 073°17'0 0.0
2014-Nov-17 00:31N 45°50' W 073°17'0 0.0
2014-Nov-16 23:31N 45°50' W 073°17'0 0.0
2014-Nov-16 22:31N 45°50' W 073°17'0 0.0
2014-Nov-16 21:28N 45°50' W 073°17'0 0.0
2014-Nov-16 20:31N 45°50' W 073°17'0 0.0
2014-Nov-16 19:31N 45°50' W 073°17'0 0.0
2014-Nov-16 18:31N 45°50' W 073°17'0 0.0
2014-Nov-16 17:31N 45°50' W 073°17'0 0.0
2014-Nov-16 16:31N 45°50' W 073°17'0 0.0
2014-Nov-16 15:31N 45°50' W 073°17'0 0.0
2014-Nov-16 14:31N 45°50' W 073°17'0 0.3
2014-Nov-16 13:33N 45°50' W 073°17'6 6.5
2014-Nov-16 12:33N 45°56' W 073°13'9 8.5
2014-Nov-16 11:27N 46°04' W 073°05'20 9.8
2014-Nov-16 09:28N 46°16' W 072°43'8 8.3
2014-Nov-16 08:33N 46°19' W 072°33'9 8.8
2014-Nov-16 07:33N 46°25' W 072°23'0 0.4
2014-Nov-16 06:32N 46°24' W 072°23'0 0.0
2014-Nov-16 05:30N 46°24' W 072°23'0 0.0
2014-Nov-16 04:30N 46°24' W 072°23'0 0.0
2014-Nov-16 03:28N 46°24' W 072°23'0 0.0
2014-Nov-16 02:28N 46°24' W 072°23'0 0.0
2014-Nov-16 01:28N 46°24' W 072°23'0 0.0
2014-Nov-16 00:28N 46°24' W 072°23'0 0.0
2014-Nov-15 23:28N 46°24' W 072°23'0 0.0
2014-Nov-15 22:31N 46°24' W 072°23'0 0.0
2014-Nov-15 21:31N 46°24' W 072°23'0 0.0
2014-Nov-15 20:28N 46°24' W 072°23'0 0.0
2014-Nov-15 19:28N 46°24' W 072°23'0 0.0
2014-Nov-15 18:28N 46°24' W 072°23'0 0.0
2014-Nov-15 15:28N 46°24' W 072°23'0 0.0
2014-Nov-15 14:28N 46°24' W 072°23'0 0.0
2014-Nov-15 13:28N 46°24' W 072°23'0 0.0
2014-Nov-15 12:28N 46°24' W 072°23'0 0.0
2014-Nov-15 11:28N 46°24' W 072°23'0 0.0
2014-Nov-15 10:28N 46°24' W 072°23'0 0.0
2014-Nov-15 09:28N 46°24' W 072°23'0 0.0
2014-Nov-15 08:16N 46°24' W 072°23'0 0.0
2014-Nov-15 07:28N 46°24' W 072°23'0 0.0
2014-Nov-15 06:28N 46°24' W 072°23'0 0.0
2014-Nov-15 05:31N 46°24' W 072°23'0 0.0
2014-Nov-15 04:31N 46°24' W 072°23'0 0.0
2014-Nov-15 03:31N 46°24' W 072°23'0 0.0
2014-Nov-15 02:31N 46°24' W 072°23'0 0.0
2014-Nov-15 01:19N 46°24' W 072°23'0 0.0
2014-Nov-15 00:31N 46°24' W 072°23'0 0.0
2014-Nov-14 23:31N 46°24' W 072°23'0 0.0
2014-Nov-14 22:31N 46°24' W 072°23'0 0.0
2014-Nov-14 21:31N 46°24' W 072°23'0 0.0
2014-Nov-14 20:31N 46°24' W 072°23'0 0.0
2014-Nov-14 19:31N 46°24' W 072°23'0 0.0
2014-Nov-14 18:31N 46°24' W 072°23'0 0.0
2014-Nov-14 17:31N 46°24' W 072°23'0 0.0
2014-Nov-14 16:31N 46°24' W 072°23'0 0.0
2014-Nov-14 15:31N 46°24' W 072°23'0 0.0
2014-Nov-14 14:31N 46°24' W 072°23'0 0.0
2014-Nov-14 12:31N 46°24' W 072°23'0 0.0
2014-Nov-14 11:31N 46°24' W 072°23'0 0.0
2014-Nov-14 10:31N 46°24' W 072°23'0 0.0
2014-Nov-14 09:31N 46°24' W 072°23'0 0.0
2014-Nov-14 08:31N 46°24' W 072°23'0 0.0
2014-Nov-14 07:28N 46°24' W 072°23'0 0.0
2014-Nov-14 06:28N 46°24' W 072°23'0 0.0
2014-Nov-14 05:28N 46°24' W 072°23'0 0.0
2014-Nov-14 04:28N 46°24' W 072°23'0 0.0
2014-Nov-14 03:28N 46°24' W 072°23'0 0.0
2014-Nov-14 02:28N 46°24' W 072°23'0 0.0
2014-Nov-14 01:28N 46°24' W 072°23'0 0.0
2014-Nov-14 00:28N 46°24' W 072°23'0 0.0
2014-Nov-13 23:28N 46°24' W 072°23'0 0.0
2014-Nov-13 22:31N 46°24' W 072°23'0 0.0
2014-Nov-13 21:31N 46°24' W 072°23'0 0.0
2014-Nov-13 20:31N 46°24' W 072°23'0 0.0
2014-Nov-13 19:31N 46°24' W 072°23'0 0.0
2014-Nov-13 18:31N 46°24' W 072°23'0 0.0
2014-Nov-13 17:31N 46°24' W 072°23'0 0.0
2014-Nov-13 16:31N 46°24' W 072°23'0 0.0
2014-Nov-13 15:25N 46°24' W 072°23'0 0.0
2014-Nov-13 14:31N 46°24' W 072°23'0 0.0
2014-Nov-13 13:31N 46°24' W 072°23'0 0.0
2014-Nov-13 12:31N 46°24' W 072°23'0 0.0
2014-Nov-13 11:29N 46°24' W 072°23'0 0.0
2014-Nov-13 10:29N 46°24' W 072°23'0 0.0
2014-Nov-13 09:29N 46°24' W 072°23'0 0.0
2014-Nov-13 08:29N 46°24' W 072°23'0 0.0
2014-Nov-13 07:33N 46°24' W 072°23'0 0.0
2014-Nov-13 06:30N 46°24' W 072°23'0 0.0
2014-Nov-13 05:28N 46°24' W 072°23'0 0.0
2014-Nov-13 04:28N 46°24' W 072°23'0 0.0
2014-Nov-13 03:28N 46°24' W 072°23'0 0.0
2014-Nov-13 02:16N 46°24' W 072°23'0 0.0
2014-Nov-13 01:28N 46°24' W 072°23'0 0.0
2014-Nov-13 00:22N 46°24' W 072°23'0 0.0
2014-Nov-12 23:26N 46°24' W 072°23'0 0.0
2014-Nov-12 22:32N 46°24' W 072°23'0 0.0
2014-Nov-12 21:26N 46°24' W 072°23'0 0.0
2014-Nov-12 20:31N 46°24' W 072°23'0 0.0
2014-Nov-12 19:31N 46°24' W 072°23'0 0.0
2014-Nov-12 18:31N 46°24' W 072°23'0 0.0
2014-Nov-12 17:31N 46°24' W 072°23'0 0.0
2014-Nov-12 16:31N 46°24' W 072°23'0 0.0
2014-Nov-12 15:33N 46°24' W 072°23'0 0.0
2014-Nov-12 14:33N 46°24' W 072°23'0 0.0
2014-Nov-12 13:33N 46°24' W 072°23'0 0.0
2014-Nov-12 12:33N 46°24' W 072°23'0 0.0
2014-Nov-12 11:32N 46°24' W 072°23'0 0.0
2014-Nov-12 10:26N 46°24' W 072°23'0 0.0
2014-Nov-12 09:33N 46°24' W 072°23'0 0.0
2014-Nov-12 08:25N 46°24' W 072°23'  
Track history (hours):
 
Tides and Currents Weather Stations Pressure Air Temp Water Temp Dewpoint Dewpoint Depression Visibility Wind Speed Wind Dir Waves Ship Positions

Federal Rideau

Last reported at 2014-Nov-22 08:11 UTC. Time now 2014-Nov-23 09:54 UTC.
Position N 44°07' W 076°23'.

Length 200 m; draft 6.5 m.

Type: Cargo ship. MMSI: 477734000.

Date/timePositionNaut miles runAvg speedWind from/ knotsBaromVisibWave heightAir tempDewpointWater temp
2014-Nov-22 08:11N 44°07' W 076°23'0 0.2
2014-Nov-22 07:34N 44°07' W 076°22'1 1.0
2014-Nov-22 06:34N 44°06' W 076°23'3 2.6
2014-Nov-22 05:34N 44°08' W 076°21'2 1.5
2014-Nov-22 04:34N 44°07' W 076°22'0 0.2
2014-Nov-22 03:34N 44°07' W 076°23'2 2.0
2014-Nov-22 02:34N 44°08' W 076°20'2 2.4
2014-Nov-22 01:33N 44°10' W 076°19'7 6.7
2014-Nov-22 00:31N 44°13' W 076°11'0 0.0
2014-Nov-21 21:13N 44°13' W 076°10'0 0.0
2014-Nov-21 20:19N 44°13' W 076°10'0 0.0
2014-Nov-21 19:31N 44°13' W 076°10'0 0.0
2014-Nov-21 18:34N 44°13' W 076°10'0 0.0
2014-Nov-21 17:31N 44°13' W 076°10'0 0.0
2014-Nov-21 16:31N 44°13' W 076°10'0 0.1
2014-Nov-21 15:34N 44°13' W 076°11'1 0.6
2014-Nov-21 14:34N 44°14' W 076°10'0 0.0
2014-Nov-21 13:34N 44°14' W 076°10'0 0.0
2014-Nov-21 12:34N 44°14' W 076°10'0 0.1
2014-Nov-21 11:18N 44°14' W 076°09'0 0.0
2014-Nov-21 10:30N 44°14' W 076°09'0 0.1
2014-Nov-21 09:31N 44°14' W 076°09'0 0.0
2014-Nov-21 08:34N 44°14' W 076°09'0 0.0
2014-Nov-21 07:34N 44°14' W 076°09'0 0.0
2014-Nov-21 06:30N 44°14' W 076°09'0 0.0
2014-Nov-21 05:34N 44°14' W 076°09'0 0.0
2014-Nov-21 04:30N 44°14' W 076°09'0 0.0
2014-Nov-21 03:33N 44°14' W 076°09'0 0.0
2014-Nov-21 02:34N 44°14' W 076°09'0 0.0
2014-Nov-21 01:34N 44°14' W 076°09'0 0.0
2014-Nov-21 00:30N 44°14' W 076°09'0 0.0
2014-Nov-20 23:30N 44°14' W 076°09'0 0.0
2014-Nov-20 22:30N 44°14' W 076°09'0 0.0
2014-Nov-20 21:24N 44°14' W 076°09'0 0.0
2014-Nov-20 20:30N 44°14' W 076°09'0 0.0
2014-Nov-20 19:30N 44°14' W 076°09'1 0.7
2014-Nov-20 18:34N 44°14' W 076°09'5 4.7
2014-Nov-20 17:31N 44°16' W 076°03'9 8.6
2014-Nov-20 16:30N 44°22' W 075°54'1010.9
2014-Nov-20 15:33N 44°31' W 075°46'88 6.3
2014-Nov-20 01:32N 45°15' W 073°59'5 4.6
2014-Nov-20 00:33N 45°19' W 073°55'1 0.9
2014-Nov-19 23:33N 45°19' W 073°55'1 1.1
2014-Nov-19 22:33N 45°20' W 073°54'4 3.6
2014-Nov-19 21:33N 45°22' W 073°50'6 6.1
2014-Nov-19 20:33N 45°25' W 073°42'5 4.6
2014-Nov-19 19:33N 45°24' W 073°35'1 1.3
2014-Nov-19 18:30N 45°24' W 073°33'6 2.8
2014-Nov-19 16:25N 45°30' W 073°31'22 1.3
2014-Nov-18 23:25N 45°50' W 073°17'0 0.0
2014-Nov-18 22:31N 45°50' W 073°17'0 0.0
2014-Nov-18 21:31N 45°50' W 073°17'0 0.0
2014-Nov-18 20:31N 45°50' W 073°17'0 0.0
2014-Nov-18 19:31N 45°50' W 073°17'0 0.0
2014-Nov-18 18:31N 45°50' W 073°17'0 0.0
2014-Nov-18 17:31N 45°50' W 073°17'0 0.0
2014-Nov-18 16:31N 45°50' W 073°17'0 0.0
2014-Nov-18 15:13N 45°50' W 073°17'0 0.0
2014-Nov-18 14:31N 45°50' W 073°17'0 0.0
2014-Nov-18 13:31N 45°50' W 073°17'0 0.0
2014-Nov-18 12:31N 45°50' W 073°17'0 0.0
2014-Nov-18 11:31N 45°50' W 073°17'0 0.0
2014-Nov-18 10:31N 45°50' W 073°17'0 0.0
2014-Nov-18 09:31N 45°50' W 073°17'0 0.0
2014-Nov-18 08:31N 45°50' W 073°17'0 0.0
2014-Nov-18 07:31N 45°50' W 073°17'0 0.0
2014-Nov-18 06:31N 45°50' W 073°17'0 0.0
2014-Nov-18 05:31N 45°50' W 073°17'0 0.0
2014-Nov-18 04:31N 45°50' W 073°17'0 0.0
2014-Nov-18 03:31N 45°50' W 073°17'0 0.0
2014-Nov-18 02:31N 45°50' W 073°17'0 0.0
2014-Nov-18 01:31N 45°50' W 073°17'0 0.0
2014-Nov-18 00:22N 45°50' W 073°17'0 0.0
2014-Nov-17 23:31N 45°50' W 073°17'0 0.0
2014-Nov-17 22:28N 45°50' W 073°17'0 0.0
2014-Nov-17 21:31N 45°50' W 073°17'0 0.0
2014-Nov-17 20:31N 45°50' W 073°17'0 0.0
2014-Nov-17 19:31N 45°50' W 073°17'0 0.0
2014-Nov-17 18:31N 45°50' W 073°17'0 0.0
2014-Nov-17 17:31N 45°50' W 073°17'0 0.0
2014-Nov-17 16:31N 45°50' W 073°17'0 0.0
2014-Nov-17 15:31N 45°50' W 073°17'0 0.0
2014-Nov-17 14:31N 45°50' W 073°17'0 0.0
2014-Nov-17 13:31N 45°50' W 073°17'0 0.0
2014-Nov-17 12:31N 45°50' W 073°17'0 0.0
2014-Nov-17 11:31N 45°50' W 073°17'0 0.0
2014-Nov-17 10:31N 45°50' W 073°17'0 0.0
2014-Nov-17 09:31N 45°50' W 073°17'0 0.0
2014-Nov-17 08:31N 45°50' W 073°17'0 0.0
2014-Nov-17 07:31N 45°50' W 073°17'0 0.0
2014-Nov-17 06:31N 45°50' W 073°17'0 0.0
2014-Nov-17 05:31N 45°50' W 073°17'0 0.0
2014-Nov-17 04:31N 45°50' W 073°17'0 0.0
2014-Nov-17 03:31N 45°50' W 073°17'0 0.0
2014-Nov-17 02:31N 45°50' W 073°17'0 0.0
2014-Nov-17 01:31N 45°50' W 073°17'0 0.0
2014-Nov-17 00:31N 45°50' W 073°17'0 0.0
2014-Nov-16 23:31N 45°50' W 073°17'0 0.0
2014-Nov-16 22:31N 45°50' W 073°17'0 0.0
2014-Nov-16 21:28N 45°50' W 073°17'0 0.0
2014-Nov-16 20:31N 45°50' W 073°17'0 0.0
2014-Nov-16 19:31N 45°50' W 073°17'0 0.0
2014-Nov-16 18:31N 45°50' W 073°17'0 0.0
2014-Nov-16 17:31N 45°50' W 073°17'0 0.0
2014-Nov-16 16:31N 45°50' W 073°17'0 0.0
2014-Nov-16 15:31N 45°50' W 073°17'0 0.0
2014-Nov-16 14:31N 45°50' W 073°17'0 0.3
2014-Nov-16 13:33N 45°50' W 073°17'6 6.5
2014-Nov-16 12:33N 45°56' W 073°13'9 8.5
2014-Nov-16 11:27N 46°04' W 073°05'20 9.8
2014-Nov-16 09:28N 46°16' W 072°43'8 8.3
2014-Nov-16 08:33N 46°19' W 072°33'9 8.8
2014-Nov-16 07:33N 46°25' W 072°23'0 0.4
2014-Nov-16 06:32N 46°24' W 072°23'0 0.0
2014-Nov-16 05:30N 46°24' W 072°23'0 0.0
2014-Nov-16 04:30N 46°24' W 072°23'0 0.0
2014-Nov-16 03:28N 46°24' W 072°23'0 0.0
2014-Nov-16 02:28N 46°24' W 072°23'0 0.0
2014-Nov-16 01:28N 46°24' W 072°23'0 0.0
2014-Nov-16 00:28N 46°24' W 072°23'0 0.0
2014-Nov-15 23:28N 46°24' W 072°23'0 0.0
2014-Nov-15 22:31N 46°24' W 072°23'0 0.0
2014-Nov-15 21:31N 46°24' W 072°23'0 0.0
2014-Nov-15 20:28N 46°24' W 072°23'0 0.0
2014-Nov-15 19:28N 46°24' W 072°23'0 0.0
2014-Nov-15 18:28N 46°24' W 072°23'0 0.0
2014-Nov-15 15:28N 46°24' W 072°23'0 0.0
2014-Nov-15 14:28N 46°24' W 072°23'0 0.0
2014-Nov-15 13:28N 46°24' W 072°23'0 0.0
2014-Nov-15 12:28N 46°24' W 072°23'0 0.0
2014-Nov-15 11:28N 46°24' W 072°23'0 0.0
2014-Nov-15 10:28N 46°24' W 072°23'0 0.0
2014-Nov-15 09:28N 46°24' W 072°23'0 0.0
2014-Nov-15 08:16N 46°24' W 072°23'0 0.0
2014-Nov-15 07:28N 46°24' W 072°23'0 0.0
2014-Nov-15 06:28N 46°24' W 072°23'0 0.0
2014-Nov-15 05:31N 46°24' W 072°23'0 0.0
2014-Nov-15 04:31N 46°24' W 072°23'0 0.0
2014-Nov-15 03:31N 46°24' W 072°23'0 0.0
2014-Nov-15 02:31N 46°24' W 072°23'0 0.0
2014-Nov-15 01:19N 46°24' W 072°23'0 0.0
2014-Nov-15 00:31N 46°24' W 072°23'0 0.0
2014-Nov-14 23:31N 46°24' W 072°23'0 0.0
2014-Nov-14 22:31N 46°24' W 072°23'0 0.0
2014-Nov-14 21:31N 46°24' W 072°23'0 0.0
2014-Nov-14 20:31N 46°24' W 072°23'0 0.0
2014-Nov-14 19:31N 46°24' W 072°23'0 0.0
2014-Nov-14 18:31N 46°24' W 072°23'0 0.0
2014-Nov-14 17:31N 46°24' W 072°23'0 0.0
2014-Nov-14 16:31N 46°24' W 072°23'0 0.0
2014-Nov-14 15:31N 46°24' W 072°23'0 0.0
2014-Nov-14 14:31N 46°24' W 072°23'0 0.0
2014-Nov-14 12:31N 46°24' W 072°23'0 0.0
2014-Nov-14 11:31N 46°24' W 072°23'0 0.0
2014-Nov-14 10:31N 46°24' W 072°23'0 0.0
2014-Nov-14 09:31N 46°24' W 072°23'0 0.0
2014-Nov-14 08:31N 46°24' W 072°23'0 0.0
2014-Nov-14 07:28N 46°24' W 072°23'0 0.0
2014-Nov-14 06:28N 46°24' W 072°23'0 0.0
2014-Nov-14 05:28N 46°24' W 072°23'0 0.0
2014-Nov-14 04:28N 46°24' W 072°23'0 0.0
2014-Nov-14 03:28N 46°24' W 072°23'0 0.0
2014-Nov-14 02:28N 46°24' W 072°23'0 0.0
2014-Nov-14 01:28N 46°24' W 072°23'0 0.0
2014-Nov-14 00:28N 46°24' W 072°23'0 0.0
2014-Nov-13 23:28N 46°24' W 072°23'0 0.0
2014-Nov-13 22:31N 46°24' W 072°23'0 0.0
2014-Nov-13 21:31N 46°24' W 072°23'0 0.0
2014-Nov-13 20:31N 46°24' W 072°23'0 0.0
2014-Nov-13 19:31N 46°24' W 072°23'0 0.0
2014-Nov-13 18:31N 46°24' W 072°23'0 0.0
2014-Nov-13 17:31N 46°24' W 072°23'0 0.0
2014-Nov-13 16:31N 46°24' W 072°23'0 0.0
2014-Nov-13 15:25N 46°24' W 072°23'0 0.0
2014-Nov-13 14:31N 46°24' W 072°23'0 0.0
2014-Nov-13 13:31N 46°24' W 072°23'0 0.0
2014-Nov-13 12:31N 46°24' W 072°23'0 0.0
2014-Nov-13 11:29N 46°24' W 072°23'0 0.0
2014-Nov-13 10:29N 46°24' W 072°23'0 0.0
2014-Nov-13 09:29N 46°24' W 072°23'0 0.0
2014-Nov-13 08:29N 46°24' W 072°23'0 0.0
2014-Nov-13 07:33N 46°24' W 072°23'0 0.0
2014-Nov-13 06:30N 46°24' W 072°23'0 0.0
2014-Nov-13 05:28N 46°24' W 072°23'0 0.0
2014-Nov-13 04:28N 46°24' W 072°23'0 0.0
2014-Nov-13 03:28N 46°24' W 072°23'0 0.0
2014-Nov-13 02:16N 46°24' W 072°23'0 0.0
2014-Nov-13 01:28N 46°24' W 072°23'0 0.0
2014-Nov-13 00:22N 46°24' W 072°23'0 0.0
2014-Nov-12 23:26N 46°24' W 072°23'0 0.0
2014-Nov-12 22:32N 46°24' W 072°23'0 0.0
2014-Nov-12 21:26N 46°24' W 072°23'0 0.0
2014-Nov-12 20:31N 46°24' W 072°23'0 0.0
2014-Nov-12 19:31N 46°24' W 072°23'0 0.0
2014-Nov-12 18:31N 46°24' W 072°23'0 0.0
2014-Nov-12 17:31N 46°24' W 072°23'0 0.0
2014-Nov-12 16:31N 46°24' W 072°23'0 0.0
2014-Nov-12 15:33N 46°24' W 072°23'0 0.0
2014-Nov-12 14:33N 46°24' W 072°23'0 0.0
2014-Nov-12 13:33N 46°24' W 072°23'0 0.0
2014-Nov-12 12:33N 46°24' W 072°23'0 0.0
2014-Nov-12 11:32N 46°24' W 072°23'0 0.0
2014-Nov-12 10:26N 46°24' W 072°23'0 0.0
2014-Nov-12 09:33N 46°24' W 072°23'0 0.0
2014-Nov-12 08:25N 46°24' W 072°23'  

Dump ship's entire track history